sensor_id;sensor_type;location;lat;lon;timestamp;P1;durP1;ratioP1;P2;durP2;ratioP2
74894;SDS011;63447;49.446;8.666;2023-04-06T00:00:37;10.32;;;5.40;;
74894;SDS011;63447;49.446;8.666;2023-04-06T00:03:04;10.70;;;5.80;;
74894;SDS011;63447;49.446;8.666;2023-04-06T00:05:30;9.13;;;4.88;;
74894;SDS011;63447;49.446;8.666;2023-04-06T00:07:58;9.25;;;5.18;;
74894;SDS011;63447;49.446;8.666;2023-04-06T00:12:51;9.02;;;4.95;;
74894;SDS011;63447;49.446;8.666;2023-04-06T00:17:42;10.73;;;5.67;;
74894;SDS011;63447;49.446;8.666;2023-04-06T00:20:08;9.30;;;5.00;;
74894;SDS011;63447;49.446;8.666;2023-04-06T00:22:34;9.45;;;5.15;;
74894;SDS011;63447;49.446;8.666;2023-04-06T00:25:01;9.95;;;5.15;;
74894;SDS011;63447;49.446;8.666;2023-04-06T00:29:52;8.43;;;5.33;;
74894;SDS011;63447;49.446;8.666;2023-04-06T00:32:21;10.32;;;5.22;;
74894;SDS011;63447;49.446;8.666;2023-04-06T00:37:16;10.18;;;5.50;;
74894;SDS011;63447;49.446;8.666;2023-04-06T00:39:42;9.13;;;5.22;;
74894;SDS011;63447;49.446;8.666;2023-04-06T00:42:10;10.35;;;5.82;;
74894;SDS011;63447;49.446;8.666;2023-04-06T00:44:43;9.25;;;5.53;;
74894;SDS011;63447;49.446;8.666;2023-04-06T00:47:11;11.10;;;5.43;;
74894;SDS011;63447;49.446;8.666;2023-04-06T00:49:39;9.85;;;5.45;;
74894;SDS011;63447;49.446;8.666;2023-04-06T00:52:07;10.00;;;5.38;;
74894;SDS011;63447;49.446;8.666;2023-04-06T00:54:32;10.63;;;5.85;;
74894;SDS011;63447;49.446;8.666;2023-04-06T00:56:58;10.85;;;5.75;;
74894;SDS011;63447;49.446;8.666;2023-04-06T01:01:49;12.38;;;6.22;;
74894;SDS011;63447;49.446;8.666;2023-04-06T01:04:17;11.85;;;6.55;;
74894;SDS011;63447;49.446;8.666;2023-04-06T01:09:10;15.17;;;7.03;;
74894;SDS011;63447;49.446;8.666;2023-04-06T01:11:37;11.90;;;6.28;;
74894;SDS011;63447;49.446;8.666;2023-04-06T01:16:31;10.85;;;5.95;;
74894;SDS011;63447;49.446;8.666;2023-04-06T01:18:56;10.93;;;6.05;;
74894;SDS011;63447;49.446;8.666;2023-04-06T01:21:26;9.57;;;5.90;;
74894;SDS011;63447;49.446;8.666;2023-04-06T01:23:54;11.25;;;5.72;;
74894;SDS011;63447;49.446;8.666;2023-04-06T01:28:45;12.68;;;6.03;;
74894;SDS011;63447;49.446;8.666;2023-04-06T01:31:13;9.52;;;5.80;;
74894;SDS011;63447;49.446;8.666;2023-04-06T01:33:44;11.10;;;6.70;;
74894;SDS011;63447;49.446;8.666;2023-04-06T01:36:10;12.80;;;6.30;;
74894;SDS011;63447;49.446;8.666;2023-04-06T01:38:38;11.15;;;5.85;;
74894;SDS011;63447;49.446;8.666;2023-04-06T01:43:29;13.07;;;5.90;;
74894;SDS011;63447;49.446;8.666;2023-04-06T01:45:54;10.15;;;6.40;;
74894;SDS011;63447;49.446;8.666;2023-04-06T01:50:48;12.50;;;6.03;;
74894;SDS011;63447;49.446;8.666;2023-04-06T01:55:43;10.70;;;5.97;;
74894;SDS011;63447;49.446;8.666;2023-04-06T01:58:12;12.88;;;6.43;;
74894;SDS011;63447;49.446;8.666;2023-04-06T02:00:42;9.55;;;5.30;;
74894;SDS011;63447;49.446;8.666;2023-04-06T02:03:09;13.37;;;6.10;;
74894;SDS011;63447;49.446;8.666;2023-04-06T02:05:35;9.30;;;5.88;;
74894;SDS011;63447;49.446;8.666;2023-04-06T02:08:06;10.93;;;6.10;;
74894;SDS011;63447;49.446;8.666;2023-04-06T02:10:34;10.73;;;6.38;;
74894;SDS011;63447;49.446;8.666;2023-04-06T02:15:30;10.80;;;5.75;;
74894;SDS011;63447;49.446;8.666;2023-04-06T02:20:22;10.23;;;5.72;;
74894;SDS011;63447;49.446;8.666;2023-04-06T02:25:12;10.73;;;5.70;;
74894;SDS011;63447;49.446;8.666;2023-04-06T02:30:03;11.87;;;5.63;;
74894;SDS011;63447;49.446;8.666;2023-04-06T02:32:29;10.52;;;5.70;;
74894;SDS011;63447;49.446;8.666;2023-04-06T02:34:57;8.68;;;5.20;;
74894;SDS011;63447;49.446;8.666;2023-04-06T02:37:25;10.25;;;6.05;;
74894;SDS011;63447;49.446;8.666;2023-04-06T02:39:50;10.65;;;5.95;;
74894;SDS011;63447;49.446;8.666;2023-04-06T02:42:20;9.70;;;6.30;;
74894;SDS011;63447;49.446;8.666;2023-04-06T02:44:46;10.43;;;5.80;;
74894;SDS011;63447;49.446;8.666;2023-04-06T02:47:13;11.98;;;5.85;;
74894;SDS011;63447;49.446;8.666;2023-04-06T02:49:41;10.33;;;6.30;;
74894;SDS011;63447;49.446;8.666;2023-04-06T02:52:09;14.35;;;7.07;;
74894;SDS011;63447;49.446;8.666;2023-04-06T02:54:35;11.43;;;5.97;;
74894;SDS011;63447;49.446;8.666;2023-04-06T02:57:05;10.27;;;6.18;;
74894;SDS011;63447;49.446;8.666;2023-04-06T02:59:30;11.30;;;6.22;;
74894;SDS011;63447;49.446;8.666;2023-04-06T03:01:56;11.88;;;6.03;;
74894;SDS011;63447;49.446;8.666;2023-04-06T03:04:26;13.70;;;6.60;;
74894;SDS011;63447;49.446;8.666;2023-04-06T03:06:51;13.02;;;6.53;;
74894;SDS011;63447;49.446;8.666;2023-04-06T03:09:19;10.32;;;5.50;;
74894;SDS011;63447;49.446;8.666;2023-04-06T03:11:47;11.10;;;6.10;;
74894;SDS011;63447;49.446;8.666;2023-04-06T03:14:14;10.98;;;6.57;;
74894;SDS011;63447;49.446;8.666;2023-04-06T03:16:42;12.27;;;6.63;;
74894;SDS011;63447;49.446;8.666;2023-04-06T03:19:07;9.63;;;5.80;;
74894;SDS011;63447;49.446;8.666;2023-04-06T03:21:33;10.75;;;6.38;;
74894;SDS011;63447;49.446;8.666;2023-04-06T03:23:58;11.27;;;6.05;;
74894;SDS011;63447;49.446;8.666;2023-04-06T03:26:25;14.18;;;6.35;;
74894;SDS011;63447;49.446;8.666;2023-04-06T03:28:53;13.55;;;6.80;;
74894;SDS011;63447;49.446;8.666;2023-04-06T03:31:21;13.20;;;6.35;;
74894;SDS011;63447;49.446;8.666;2023-04-06T03:33:50;14.40;;;6.55;;
74894;SDS011;63447;49.446;8.666;2023-04-06T03:36:17;12.60;;;6.97;;
74894;SDS011;63447;49.446;8.666;2023-04-06T03:38:47;12.55;;;6.45;;
74894;SDS011;63447;49.446;8.666;2023-04-06T03:41:17;13.93;;;6.95;;
74894;SDS011;63447;49.446;8.666;2023-04-06T03:43:47;11.20;;;6.55;;
74894;SDS011;63447;49.446;8.666;2023-04-06T03:46:17;12.60;;;6.40;;
74894;SDS011;63447;49.446;8.666;2023-04-06T03:48:45;10.85;;;5.97;;
74894;SDS011;63447;49.446;8.666;2023-04-06T03:51:15;10.63;;;6.65;;
74894;SDS011;63447;49.446;8.666;2023-04-06T03:53:43;12.35;;;6.70;;
74894;SDS011;63447;49.446;8.666;2023-04-06T03:56:10;13.10;;;7.15;;
74894;SDS011;63447;49.446;8.666;2023-04-06T03:58:38;11.80;;;7.07;;
74894;SDS011;63447;49.446;8.666;2023-04-06T04:01:06;11.88;;;6.53;;
74894;SDS011;63447;49.446;8.666;2023-04-06T04:03:31;14.40;;;7.00;;
74894;SDS011;63447;49.446;8.666;2023-04-06T04:05:57;12.48;;;7.13;;
74894;SDS011;63447;49.446;8.666;2023-04-06T04:08:27;13.20;;;7.47;;
74894;SDS011;63447;49.446;8.666;2023-04-06T04:10:52;13.10;;;7.15;;
74894;SDS011;63447;49.446;8.666;2023-04-06T04:13:20;12.75;;;7.18;;
74894;SDS011;63447;49.446;8.666;2023-04-06T04:15:50;11.93;;;6.47;;
74894;SDS011;63447;49.446;8.666;2023-04-06T04:18:15;11.20;;;6.28;;
74894;SDS011;63447;49.446;8.666;2023-04-06T04:20:43;12.65;;;7.32;;
74894;SDS011;63447;49.446;8.666;2023-04-06T04:23:11;12.27;;;6.63;;
74894;SDS011;63447;49.446;8.666;2023-04-06T04:25:36;14.00;;;6.97;;
74894;SDS011;63447;49.446;8.666;2023-04-06T04:28:04;13.20;;;7.03;;
74894;SDS011;63447;49.446;8.666;2023-04-06T04:30:32;12.07;;;6.93;;
74894;SDS011;63447;49.446;8.666;2023-04-06T04:32:57;11.00;;;6.57;;
74894;SDS011;63447;49.446;8.666;2023-04-06T04:35:26;14.63;;;6.90;;
74894;SDS011;63447;49.446;8.666;2023-04-06T04:37:53;11.52;;;6.80;;
74894;SDS011;63447;49.446;8.666;2023-04-06T04:40:23;13.80;;;7.13;;
74894;SDS011;63447;49.446;8.666;2023-04-06T04:42:51;14.55;;;6.85;;
74894;SDS011;63447;49.446;8.666;2023-04-06T04:45:19;12.57;;;6.47;;
74894;SDS011;63447;49.446;8.666;2023-04-06T04:47:44;14.13;;;7.40;;
74894;SDS011;63447;49.446;8.666;2023-04-06T04:50:10;12.70;;;6.95;;
74894;SDS011;63447;49.446;8.666;2023-04-06T04:52:38;12.73;;;7.28;;
74894;SDS011;63447;49.446;8.666;2023-04-06T04:55:03;13.85;;;7.00;;
74894;SDS011;63447;49.446;8.666;2023-04-06T04:57:29;12.55;;;6.90;;
74894;SDS011;63447;49.446;8.666;2023-04-06T04:59:57;12.65;;;7.45;;
74894;SDS011;63447;49.446;8.666;2023-04-06T05:02:22;13.13;;;7.05;;
74894;SDS011;63447;49.446;8.666;2023-04-06T05:04:48;11.15;;;6.68;;
74894;SDS011;63447;49.446;8.666;2023-04-06T05:07:13;13.50;;;6.45;;
74894;SDS011;63447;49.446;8.666;2023-04-06T05:09:40;12.55;;;6.65;;
74894;SDS011;63447;49.446;8.666;2023-04-06T05:12:05;12.23;;;6.68;;
74894;SDS011;63447;49.446;8.666;2023-04-06T05:14:31;11.25;;;6.78;;
74894;SDS011;63447;49.446;8.666;2023-04-06T05:16:57;14.10;;;6.95;;
74894;SDS011;63447;49.446;8.666;2023-04-06T05:19:24;13.02;;;7.13;;
74894;SDS011;63447;49.446;8.666;2023-04-06T05:21:53;12.45;;;7.32;;
74894;SDS011;63447;49.446;8.666;2023-04-06T05:24:18;15.27;;;9.10;;
74894;SDS011;63447;49.446;8.666;2023-04-06T05:26:44;17.67;;;8.85;;
74894;SDS011;63447;49.446;8.666;2023-04-06T05:29:11;17.50;;;8.80;;
74894;SDS011;63447;49.446;8.666;2023-04-06T05:31:37;17.35;;;8.95;;
74894;SDS011;63447;49.446;8.666;2023-04-06T05:34:02;18.40;;;10.18;;
74894;SDS011;63447;49.446;8.666;2023-04-06T05:36:28;18.50;;;10.82;;
74894;SDS011;63447;49.446;8.666;2023-04-06T05:38:53;13.47;;;7.90;;
74894;SDS011;63447;49.446;8.666;2023-04-06T05:41:20;14.32;;;7.72;;
74894;SDS011;63447;49.446;8.666;2023-04-06T05:43:45;14.67;;;7.73;;
74894;SDS011;63447;49.446;8.666;2023-04-06T05:46:13;14.32;;;7.72;;
74894;SDS011;63447;49.446;8.666;2023-04-06T05:48:41;12.73;;;7.38;;
74894;SDS011;63447;49.446;8.666;2023-04-06T05:51:06;15.57;;;8.07;;
74894;SDS011;63447;49.446;8.666;2023-04-06T05:53:32;14.32;;;7.93;;
74894;SDS011;63447;49.446;8.666;2023-04-06T05:56:03;15.18;;;8.13;;
74894;SDS011;63447;49.446;8.666;2023-04-06T05:58:29;14.50;;;7.60;;
74894;SDS011;63447;49.446;8.666;2023-04-06T06:00:57;13.73;;;7.75;;
74894;SDS011;63447;49.446;8.666;2023-04-06T06:03:26;14.65;;;7.85;;
74894;SDS011;63447;49.446;8.666;2023-04-06T06:05:58;14.43;;;7.53;;
74894;SDS011;63447;49.446;8.666;2023-04-06T06:08:33;17.23;;;7.80;;
74894;SDS011;63447;49.446;8.666;2023-04-06T06:10:58;14.75;;;8.32;;
74894;SDS011;63447;49.446;8.666;2023-04-06T06:13:24;13.93;;;7.00;;
74894;SDS011;63447;49.446;8.666;2023-04-06T06:15:51;12.50;;;7.20;;
74894;SDS011;63447;49.446;8.666;2023-04-06T06:18:17;13.55;;;7.00;;
74894;SDS011;63447;49.446;8.666;2023-04-06T06:20:44;12.50;;;7.35;;
74894;SDS011;63447;49.446;8.666;2023-04-06T06:23:10;13.13;;;7.30;;
74894;SDS011;63447;49.446;8.666;2023-04-06T06:25:36;15.10;;;6.80;;
74894;SDS011;63447;49.446;8.666;2023-04-06T06:28:03;10.35;;;6.90;;
74894;SDS011;63447;49.446;8.666;2023-04-06T06:30:34;13.15;;;7.40;;
74894;SDS011;63447;49.446;8.666;2023-04-06T06:32:59;12.55;;;6.60;;
74894;SDS011;63447;49.446;8.666;2023-04-06T06:37:52;13.43;;;6.30;;
74894;SDS011;63447;49.446;8.666;2023-04-06T06:40:17;11.23;;;6.70;;
74894;SDS011;63447;49.446;8.666;2023-04-06T06:45:09;11.43;;;6.40;;
74894;SDS011;63447;49.446;8.666;2023-04-06T06:47:35;11.82;;;7.03;;
74894;SDS011;63447;49.446;8.666;2023-04-06T06:50:02;14.38;;;7.28;;
74894;SDS011;63447;49.446;8.666;2023-04-06T06:54:56;13.40;;;6.85;;
74894;SDS011;63447;49.446;8.666;2023-04-06T06:57:24;11.85;;;6.60;;
74894;SDS011;63447;49.446;8.666;2023-04-06T06:59:51;12.82;;;7.18;;
74894;SDS011;63447;49.446;8.666;2023-04-06T07:04:47;10.95;;;6.50;;
74894;SDS011;63447;49.446;8.666;2023-04-06T07:07:17;12.35;;;6.18;;
74894;SDS011;63447;49.446;8.666;2023-04-06T07:12:10;10.60;;;6.07;;
74894;SDS011;63447;49.446;8.666;2023-04-06T07:14:35;10.38;;;6.47;;
74894;SDS011;63447;49.446;8.666;2023-04-06T07:17:06;12.52;;;6.75;;
74894;SDS011;63447;49.446;8.666;2023-04-06T07:19:31;12.88;;;7.13;;
74894;SDS011;63447;49.446;8.666;2023-04-06T07:24:22;10.07;;;6.67;;
74894;SDS011;63447;49.446;8.666;2023-04-06T07:26:47;11.85;;;6.85;;
74894;SDS011;63447;49.446;8.666;2023-04-06T07:31:38;10.33;;;6.23;;
74894;SDS011;63447;49.446;8.666;2023-04-06T07:36:33;13.25;;;6.80;;
74894;SDS011;63447;49.446;8.666;2023-04-06T07:39:01;12.75;;;7.22;;
74894;SDS011;63447;49.446;8.666;2023-04-06T07:41:26;12.05;;;7.25;;
74894;SDS011;63447;49.446;8.666;2023-04-06T07:43:52;12.35;;;6.70;;
74894;SDS011;63447;49.446;8.666;2023-04-06T07:46:20;14.23;;;7.57;;
74894;SDS011;63447;49.446;8.666;2023-04-06T07:48:45;14.68;;;7.15;;
74894;SDS011;63447;49.446;8.666;2023-04-06T07:51:11;10.90;;;6.82;;
74894;SDS011;63447;49.446;8.666;2023-04-06T07:53:39;12.88;;;7.38;;
74894;SDS011;63447;49.446;8.666;2023-04-06T07:56:06;11.75;;;7.30;;
74894;SDS011;63447;49.446;8.666;2023-04-06T07:58:34;13.77;;;7.00;;
74894;SDS011;63447;49.446;8.666;2023-04-06T08:01:00;12.13;;;6.97;;
74894;SDS011;63447;49.446;8.666;2023-04-06T08:03:28;12.05;;;6.63;;
74894;SDS011;63447;49.446;8.666;2023-04-06T08:05:56;11.90;;;6.78;;
74894;SDS011;63447;49.446;8.666;2023-04-06T08:08:21;11.30;;;7.05;;
74894;SDS011;63447;49.446;8.666;2023-04-06T08:10:47;11.77;;;6.78;;
74894;SDS011;63447;49.446;8.666;2023-04-06T08:13:13;14.20;;;7.57;;
74894;SDS011;63447;49.446;8.666;2023-04-06T08:15:41;13.00;;;7.30;;
74894;SDS011;63447;49.446;8.666;2023-04-06T08:18:07;14.82;;;7.53;;
74894;SDS011;63447;49.446;8.666;2023-04-06T08:20:38;11.60;;;6.72;;
74894;SDS011;63447;49.446;8.666;2023-04-06T08:23:06;13.13;;;7.53;;
74894;SDS011;63447;49.446;8.666;2023-04-06T08:25:34;13.35;;;6.75;;
74894;SDS011;63447;49.446;8.666;2023-04-06T08:28:03;11.70;;;6.00;;
74894;SDS011;63447;49.446;8.666;2023-04-06T08:30:31;10.98;;;6.40;;
74894;SDS011;63447;49.446;8.666;2023-04-06T08:32:56;13.13;;;6.57;;
74894;SDS011;63447;49.446;8.666;2023-04-06T08:35:22;13.57;;;7.17;;
74894;SDS011;63447;49.446;8.666;2023-04-06T08:37:50;11.80;;;7.15;;
74894;SDS011;63447;49.446;8.666;2023-04-06T08:40:16;10.05;;;6.82;;
74894;SDS011;63447;49.446;8.666;2023-04-06T08:42:44;10.00;;;6.15;;
74894;SDS011;63447;49.446;8.666;2023-04-06T08:45:16;13.48;;;6.40;;
74894;SDS011;63447;49.446;8.666;2023-04-06T08:47:42;10.23;;;6.20;;
74894;SDS011;63447;49.446;8.666;2023-04-06T08:50:11;11.23;;;6.72;;
74894;SDS011;63447;49.446;8.666;2023-04-06T08:52:37;11.68;;;6.93;;
74894;SDS011;63447;49.446;8.666;2023-04-06T08:55:06;12.07;;;5.97;;
74894;SDS011;63447;49.446;8.666;2023-04-06T08:57:35;12.20;;;6.03;;
74894;SDS011;63447;49.446;8.666;2023-04-06T09:00:01;13.20;;;6.90;;
74894;SDS011;63447;49.446;8.666;2023-04-06T09:02:27;11.15;;;6.32;;
74894;SDS011;63447;49.446;8.666;2023-04-06T09:04:58;11.77;;;6.13;;
74894;SDS011;63447;49.446;8.666;2023-04-06T09:07:25;11.20;;;5.93;;
74894;SDS011;63447;49.446;8.666;2023-04-06T09:09:56;9.75;;;6.22;;
74894;SDS011;63447;49.446;8.666;2023-04-06T09:12:25;10.52;;;6.53;;
74894;SDS011;63447;49.446;8.666;2023-04-06T09:14:58;11.68;;;6.68;;
74894;SDS011;63447;49.446;8.666;2023-04-06T09:20:00;12.75;;;6.93;;
74894;SDS011;63447;49.446;8.666;2023-04-06T09:22:34;12.77;;;7.40;;
74894;SDS011;63447;49.446;8.666;2023-04-06T09:25:08;12.07;;;7.07;;
74894;SDS011;63447;49.446;8.666;2023-04-06T09:27:34;11.45;;;7.30;;
74894;SDS011;63447;49.446;8.666;2023-04-06T09:30:11;11.95;;;7.13;;
74894;SDS011;63447;49.446;8.666;2023-04-06T09:32:53;12.48;;;6.60;;
74894;SDS011;63447;49.446;8.666;2023-04-06T09:35:20;12.15;;;6.45;;
74894;SDS011;63447;49.446;8.666;2023-04-06T09:37:47;10.73;;;6.72;;
74894;SDS011;63447;49.446;8.666;2023-04-06T09:40:15;11.35;;;7.15;;
74894;SDS011;63447;49.446;8.666;2023-04-06T09:42:49;14.10;;;6.63;;
74894;SDS011;63447;49.446;8.666;2023-04-06T09:45:17;9.73;;;6.13;;
74894;SDS011;63447;49.446;8.666;2023-04-06T09:47:43;11.43;;;6.57;;
74894;SDS011;63447;49.446;8.666;2023-04-06T09:50:13;10.63;;;6.57;;
74894;SDS011;63447;49.446;8.666;2023-04-06T09:52:46;10.98;;;6.70;;
74894;SDS011;63447;49.446;8.666;2023-04-06T09:55:34;10.80;;;5.97;;
74894;SDS011;63447;49.446;8.666;2023-04-06T09:58:08;10.68;;;6.75;;
74894;SDS011;63447;49.446;8.666;2023-04-06T10:00:48;10.10;;;6.18;;
74894;SDS011;63447;49.446;8.666;2023-04-06T10:08:19;10.75;;;6.43;;
74894;SDS011;63447;49.446;8.666;2023-04-06T10:10:49;11.07;;;6.28;;
74894;SDS011;63447;49.446;8.666;2023-04-06T10:13:16;10.93;;;6.63;;
74894;SDS011;63447;49.446;8.666;2023-04-06T10:15:43;10.43;;;6.38;;
74894;SDS011;63447;49.446;8.666;2023-04-06T10:18:09;11.27;;;6.05;;
74894;SDS011;63447;49.446;8.666;2023-04-06T10:20:47;11.10;;;6.28;;
74894;SDS011;63447;49.446;8.666;2023-04-06T10:23:25;10.55;;;5.95;;
74894;SDS011;63447;49.446;8.666;2023-04-06T10:25:59;10.77;;;5.90;;
74894;SDS011;63447;49.446;8.666;2023-04-06T10:28:26;9.88;;;6.15;;
74894;SDS011;63447;49.446;8.666;2023-04-06T10:31:00;9.93;;;6.13;;
74894;SDS011;63447;49.446;8.666;2023-04-06T10:33:29;10.98;;;6.35;;
74894;SDS011;63447;49.446;8.666;2023-04-06T10:35:56;10.10;;;6.13;;
74894;SDS011;63447;49.446;8.666;2023-04-06T10:38:38;10.38;;;5.15;;
74894;SDS011;63447;49.446;8.666;2023-04-06T10:41:08;11.73;;;6.25;;
74894;SDS011;63447;49.446;8.666;2023-04-06T10:43:35;11.98;;;6.10;;
74894;SDS011;63447;49.446;8.666;2023-04-06T10:46:05;10.07;;;5.50;;
74894;SDS011;63447;49.446;8.666;2023-04-06T10:51:08;9.02;;;5.35;;
74894;SDS011;63447;49.446;8.666;2023-04-06T10:53:40;10.10;;;5.45;;
74894;SDS011;63447;49.446;8.666;2023-04-06T10:56:12;10.52;;;5.43;;
74894;SDS011;63447;49.446;8.666;2023-04-06T10:58:43;9.38;;;5.10;;
74894;SDS011;63447;49.446;8.666;2023-04-06T11:01:12;10.48;;;5.45;;
74894;SDS011;63447;49.446;8.666;2023-04-06T11:03:45;9.05;;;5.25;;
74894;SDS011;63447;49.446;8.666;2023-04-06T11:06:17;20.58;;;5.88;;
74894;SDS011;63447;49.446;8.666;2023-04-06T11:08:46;9.85;;;4.93;;
74894;SDS011;63447;49.446;8.666;2023-04-06T11:11:15;11.88;;;6.10;;
74894;SDS011;63447;49.446;8.666;2023-04-06T11:13:50;10.25;;;5.47;;
74894;SDS011;63447;49.446;8.666;2023-04-06T11:16:18;8.82;;;5.20;;
74894;SDS011;63447;49.446;8.666;2023-04-06T11:21:19;8.50;;;4.95;;
74894;SDS011;63447;49.446;8.666;2023-04-06T11:26:36;8.57;;;4.97;;
74894;SDS011;63447;49.446;8.666;2023-04-06T11:29:14;10.45;;;5.90;;
74894;SDS011;63447;49.446;8.666;2023-04-06T11:31:41;9.07;;;5.75;;
74894;SDS011;63447;49.446;8.666;2023-04-06T11:34:17;8.30;;;5.03;;
74894;SDS011;63447;49.446;8.666;2023-04-06T11:36:44;9.02;;;5.22;;
74894;SDS011;63447;49.446;8.666;2023-04-06T11:39:13;7.80;;;5.00;;
74894;SDS011;63447;49.446;8.666;2023-04-06T11:41:47;9.65;;;5.38;;
74894;SDS011;63447;49.446;8.666;2023-04-06T11:44:33;9.45;;;5.65;;
74894;SDS011;63447;49.446;8.666;2023-04-06T11:47:01;9.45;;;4.82;;
74894;SDS011;63447;49.446;8.666;2023-04-06T11:49:28;8.70;;;4.90;;
74894;SDS011;63447;49.446;8.666;2023-04-06T11:51:54;8.20;;;5.30;;
74894;SDS011;63447;49.446;8.666;2023-04-06T11:54:37;9.15;;;5.10;;
74894;SDS011;63447;49.446;8.666;2023-04-06T11:57:07;9.85;;;5.78;;
74894;SDS011;63447;49.446;8.666;2023-04-06T11:59:35;10.68;;;6.45;;
74894;SDS011;63447;49.446;8.666;2023-04-06T12:02:03;11.00;;;6.05;;
74894;SDS011;63447;49.446;8.666;2023-04-06T12:04:29;10.98;;;6.30;;
74894;SDS011;63447;49.446;8.666;2023-04-06T12:06:57;10.40;;;6.43;;
74894;SDS011;63447;49.446;8.666;2023-04-06T12:09:27;9.13;;;5.70;;
74894;SDS011;63447;49.446;8.666;2023-04-06T12:11:53;9.18;;;5.63;;
74894;SDS011;63447;49.446;8.666;2023-04-06T12:14:21;9.50;;;5.65;;
74894;SDS011;63447;49.446;8.666;2023-04-06T12:16:47;10.15;;;5.97;;
74894;SDS011;63447;49.446;8.666;2023-04-06T12:19:12;10.07;;;5.93;;
74894;SDS011;63447;49.446;8.666;2023-04-06T12:21:40;10.05;;;6.13;;
74894;SDS011;63447;49.446;8.666;2023-04-06T12:24:08;10.48;;;6.15;;
74894;SDS011;63447;49.446;8.666;2023-04-06T12:26:38;10.40;;;5.60;;
74894;SDS011;63447;49.446;8.666;2023-04-06T12:29:03;9.07;;;5.32;;
74894;SDS011;63447;49.446;8.666;2023-04-06T12:31:32;9.73;;;5.80;;
74894;SDS011;63447;49.446;8.666;2023-04-06T12:34:03;8.60;;;5.60;;
74894;SDS011;63447;49.446;8.666;2023-04-06T12:36:29;10.20;;;5.60;;
74894;SDS011;63447;49.446;8.666;2023-04-06T12:38:55;12.50;;;7.03;;
74894;SDS011;63447;49.446;8.666;2023-04-06T12:41:21;12.60;;;7.53;;
74894;SDS011;63447;49.446;8.666;2023-04-06T12:43:46;11.38;;;6.60;;
74894;SDS011;63447;49.446;8.666;2023-04-06T12:46:16;10.35;;;6.38;;
74894;SDS011;63447;49.446;8.666;2023-04-06T12:48:42;9.95;;;6.03;;
74894;SDS011;63447;49.446;8.666;2023-04-06T12:51:07;11.57;;;6.68;;
74894;SDS011;63447;49.446;8.666;2023-04-06T12:53:33;10.82;;;6.88;;
74894;SDS011;63447;49.446;8.666;2023-04-06T12:56:02;11.98;;;6.30;;
74894;SDS011;63447;49.446;8.666;2023-04-06T12:58:27;10.52;;;6.25;;
74894;SDS011;63447;49.446;8.666;2023-04-06T13:00:57;10.48;;;5.95;;
74894;SDS011;63447;49.446;8.666;2023-04-06T13:03:28;9.07;;;5.57;;
74894;SDS011;63447;49.446;8.666;2023-04-06T13:05:53;9.15;;;5.70;;
74894;SDS011;63447;49.446;8.666;2023-04-06T13:08:19;10.30;;;6.30;;
74894;SDS011;63447;49.446;8.666;2023-04-06T13:10:50;9.52;;;6.13;;
74894;SDS011;63447;49.446;8.666;2023-04-06T13:13:22;9.55;;;5.97;;
74894;SDS011;63447;49.446;8.666;2023-04-06T13:15:55;9.25;;;5.95;;
74894;SDS011;63447;49.446;8.666;2023-04-06T13:18:28;10.20;;;6.35;;
74894;SDS011;63447;49.446;8.666;2023-04-06T13:20:55;9.52;;;6.10;;
74894;SDS011;63447;49.446;8.666;2023-04-06T13:23:21;10.57;;;5.75;;
74894;SDS011;63447;49.446;8.666;2023-04-06T13:25:46;10.45;;;6.28;;
74894;SDS011;63447;49.446;8.666;2023-04-06T13:28:12;10.63;;;6.10;;
74894;SDS011;63447;49.446;8.666;2023-04-06T13:30:40;10.65;;;6.13;;
74894;SDS011;63447;49.446;8.666;2023-04-06T13:33:05;11.48;;;6.38;;
74894;SDS011;63447;49.446;8.666;2023-04-06T13:35:31;8.73;;;5.55;;
74894;SDS011;63447;49.446;8.666;2023-04-06T13:37:57;8.85;;;5.50;;
74894;SDS011;63447;49.446;8.666;2023-04-06T13:40:22;8.93;;;5.72;;
74894;SDS011;63447;49.446;8.666;2023-04-06T13:42:48;8.85;;;4.57;;
74894;SDS011;63447;49.446;8.666;2023-04-06T13:45:13;8.60;;;5.00;;
74894;SDS011;63447;49.446;8.666;2023-04-06T13:47:41;9.20;;;4.95;;
74894;SDS011;63447;49.446;8.666;2023-04-06T13:50:11;11.98;;;6.00;;
74894;SDS011;63447;49.446;8.666;2023-04-06T13:52:37;9.27;;;5.65;;
74894;SDS011;63447;49.446;8.666;2023-04-06T13:55:02;10.13;;;5.72;;
74894;SDS011;63447;49.446;8.666;2023-04-06T13:57:28;10.43;;;5.45;;
74894;SDS011;63447;49.446;8.666;2023-04-06T13:59:54;9.82;;;5.10;;
74894;SDS011;63447;49.446;8.666;2023-04-06T14:02:20;8.80;;;5.28;;
74894;SDS011;63447;49.446;8.666;2023-04-06T14:04:47;9.10;;;5.05;;
74894;SDS011;63447;49.446;8.666;2023-04-06T14:07:12;9.60;;;5.80;;
74894;SDS011;63447;49.446;8.666;2023-04-06T14:09:38;8.25;;;4.93;;
74894;SDS011;63447;49.446;8.666;2023-04-06T14:12:03;9.32;;;5.07;;
74894;SDS011;63447;49.446;8.666;2023-04-06T14:14:29;8.27;;;5.03;;
74894;SDS011;63447;49.446;8.666;2023-04-06T14:16:57;9.80;;;5.45;;
74894;SDS011;63447;49.446;8.666;2023-04-06T14:19:22;11.57;;;5.33;;
74894;SDS011;63447;49.446;8.666;2023-04-06T14:21:49;10.20;;;5.47;;
74894;SDS011;63447;49.446;8.666;2023-04-06T14:24:15;11.30;;;5.63;;
74894;SDS011;63447;49.446;8.666;2023-04-06T14:26:46;10.80;;;5.30;;
74894;SDS011;63447;49.446;8.666;2023-04-06T14:29:11;10.15;;;5.65;;
74894;SDS011;63447;49.446;8.666;2023-04-06T14:31:37;9.15;;;5.35;;
74894;SDS011;63447;49.446;8.666;2023-04-06T14:34:05;8.93;;;5.35;;
74894;SDS011;63447;49.446;8.666;2023-04-06T14:36:33;9.75;;;5.10;;
74894;SDS011;63447;49.446;8.666;2023-04-06T14:39:04;11.95;;;7.07;;
74894;SDS011;63447;49.446;8.666;2023-04-06T14:41:31;11.15;;;5.90;;
74894;SDS011;63447;49.446;8.666;2023-04-06T14:44:00;11.23;;;5.85;;
74894;SDS011;63447;49.446;8.666;2023-04-06T14:46:26;10.10;;;5.82;;
74894;SDS011;63447;49.446;8.666;2023-04-06T14:48:53;10.68;;;5.70;;
74894;SDS011;63447;49.446;8.666;2023-04-06T14:51:20;9.38;;;5.00;;
74894;SDS011;63447;49.446;8.666;2023-04-06T14:53:48;9.60;;;5.20;;
74894;SDS011;63447;49.446;8.666;2023-04-06T14:56:18;10.40;;;6.07;;
74894;SDS011;63447;49.446;8.666;2023-04-06T14:58:47;12.88;;;6.32;;
74894;SDS011;63447;49.446;8.666;2023-04-06T15:01:12;11.07;;;6.25;;
74894;SDS011;63447;49.446;8.666;2023-04-06T15:03:37;10.47;;;6.17;;
74894;SDS011;63447;49.446;8.666;2023-04-06T15:06:03;11.33;;;5.73;;
74894;SDS011;63447;49.446;8.666;2023-04-06T15:08:28;10.27;;;5.68;;
74894;SDS011;63447;49.446;8.666;2023-04-06T15:10:58;12.13;;;6.30;;
74894;SDS011;63447;49.446;8.666;2023-04-06T15:13:24;10.63;;;5.80;;
74894;SDS011;63447;49.446;8.666;2023-04-06T15:15:50;12.63;;;6.22;;
74894;SDS011;63447;49.446;8.666;2023-04-06T15:18:16;12.45;;;6.05;;
74894;SDS011;63447;49.446;8.666;2023-04-06T15:20:41;12.27;;;6.03;;
74894;SDS011;63447;49.446;8.666;2023-04-06T15:23:07;17.87;;;9.37;;
74894;SDS011;63447;49.446;8.666;2023-04-06T15:25:32;10.53;;;5.93;;
74894;SDS011;63447;49.446;8.666;2023-04-06T15:27:57;11.30;;;5.65;;
74894;SDS011;63447;49.446;8.666;2023-04-06T15:30:25;11.17;;;5.97;;
74894;SDS011;63447;49.446;8.666;2023-04-06T15:33:00;11.38;;;6.28;;
74894;SDS011;63447;49.446;8.666;2023-04-06T15:35:30;10.65;;;5.40;;
74894;SDS011;63447;49.446;8.666;2023-04-06T15:37:56;11.35;;;5.50;;
74894;SDS011;63447;49.446;8.666;2023-04-06T15:40:22;10.60;;;5.35;;
74894;SDS011;63447;49.446;8.666;2023-04-06T15:42:48;10.70;;;5.07;;
74894;SDS011;63447;49.446;8.666;2023-04-06T15:45:13;10.77;;;5.22;;
74894;SDS011;63447;49.446;8.666;2023-04-06T15:47:39;9.73;;;4.65;;
74894;SDS011;63447;49.446;8.666;2023-04-06T15:50:06;10.45;;;5.50;;
74894;SDS011;63447;49.446;8.666;2023-04-06T15:52:33;9.95;;;4.88;;